1976 Tropical Cyclone ALAN (1976030S13162)


IBTrACS version v04r00. Visit IBTrACS website for data access.
Please direct all questions to the IBTrACS Q and A forum

Storm track - Intensity - Wind Radii - Intensity Data - Source Data - All data

Summary Information

Storm ID 1976030S13162
Start Jan 29 23Z
Landfall Feb 1 14Z
Max Intensity 55 kt (Feb 1 00Z), 980 mb (Jan 31 23Z)
End Feb 9 12Z
ATCF IDs ,SH131976
Track status Best track data.

Storm track plot

Map of storm track

Intensity plots

Map of storm track

Radial wind information

No radial wind information for this storm


Position and Intensity Table

BASIN ISO_TIME_________ NATURE LAT LON WMO WIND WMO PRES BOM WIND BOM PRES WELLINGTON WIND WELLINGTON PRES NEUMANN WIND NEUMANN PRES
degrees north degrees east kts mb kts mb kts mb kts mb
SP 1976-01-29 23:00:00 NR -12.50 162.00 25 1007
SP 1976-01-30 00:00:00 TS -12.71 161.52 25 1006 15 1007
SP 03:00:00 TS -12.60 160.93 25 1005 17 1006
SP 05:00:00 TS -12.53 160.53 25 1005 19 1005
SP 06:00:00 TS -12.51 160.31 25 1005 20 1005
SP 09:00:00 TS -12.48 159.71 25 1006 17 1006
SP 11:00:00 TS -12.49 159.28 25 1007 25 1007 15 1006
SP 12:00:00 TS -12.51 159.05 25 1006 15 1007
SP 15:00:00 TS -12.58 158.29 25 1005 17 1006
SP 17:00:00 TS -12.65 157.76 25 1005 25 1005 19 1005
SP 18:00:00 TS -12.70 157.50 25 1004 20 1005
SP 21:00:00 TS -12.82 156.74 25 1004 20 1004
SP 23:00:00 TS -12.96 156.20 25 1004 25 1004 20 1004
SP 1976-01-31 00:00:00 TS -13.04 155.92 25 1003 40 990 20 1004
SP 03:00:00 TS -13.42 154.95 25 1003 40 990 22 1003
SP 05:00:00 TS -13.70 154.24 25 1003 25 1003 40 990 24 1003
SP 06:00:00 TS -13.82 153.87 25 1002 40 990 25 1003
SP 09:00:00 TS -14.21 152.79 25 1002 40 990 25 1002
SP 11:00:00 TS -14.44 152.07 25 1002 25 1002 40 990 25 1002
SP 12:00:00 TS -14.54 151.73 25 1001 40 990 25 1002
SP 15:00:00 TS -14.83 150.75 28 999 43 987 30 1000
SP 17:00:00 TS -15.00 150.14 30 998 30 998 46 985 33 998
SP 18:00:00 TS -15.08 149.84 30 997 47 985 35 998
SP 21:00:00 TS -15.34 148.95 33 995 51 982 37 996
SP 23:00:00 TS -15.49 148.39 35 994 35 994 53 980 39 994
SP 1976-02-01 00:00:00 TS -15.56 148.13 35 994 55 980 40 994
SP 03:00:00 TS -15.70 147.40 35 994 51 982 40 994
SP 05:00:00 TS -15.76 146.94 35 995 35 995 48 984 40 994
SP 06:00:00 TS -15.78 146.72 35 995 47 985 40 995
SP 09:00:00 TS -15.82 146.08 35 995 43 987 37 995
SP 11:00:00 TS -15.85 145.67 35 996 35 996 41 989 35 995
SP 12:00:00 TS -15.87 145.48 33 996 40 990 35 996
SP 14:00:00 TS -15.99 145.04 30 997 30 997 36 996
SP 15:00:00 TS -16.09 144.78 28 997 37 997
SP 17:00:00 TS -16.36 144.25 25 998 25 998 39 997
SP 18:00:00 TS -16.53 144.00 25 998 40 998
SP 21:00:00 TS -17.13 143.29 25 999 37 999
SP 23:00:00 TS -17.53 142.84 25 1001 25 1001 35 1000
SP 1976-02-02 00:00:00 TS -17.69 142.61 25 1000 35 1001
SP 03:00:00 TS -18.01 141.92 25 999 32 999
SP 05:00:00 TS -18.13 141.46 25 998 25 998 30 998
SP 06:00:00 TS -18.17 141.24 25 998 30 998
SP 09:00:00 TS -18.18 140.59 25 998 30 998
SP 11:00:00 TS -18.14 140.22 25 999 25 999 30 998
SP 12:00:00 TS -18.08 140.09 25 999 30 999
SP 15:00:00 TS -18.15 139.58 25 999 30 999
SP 17:00:00 TS -18.29 139.05 25 1000 25 1000 30 999
SP 18:00:00 TS -18.36 138.77 25 1000 30 1000
SP 21:00:00 TS -18.55 137.89 25 1001 30 1001
SP 23:00:00 TS -18.67 137.38 25 1003 25 1003 30 1002
SP 1976-02-03 00:00:00 TS -18.71 137.18 25 1002 30 1003
SP 03:00:00 TS -18.82 136.81 25 1000 30 1001
SP 05:00:00 TS -18.88 136.67 25 999 25 999 30 999
SP 06:00:00 TS -18.91 136.61 25 998 30 999
SP 09:00:00 TS -19.01 136.40 25 998 30 998
SP 11:00:00 TS -19.08 136.28 25 998 25 998 30 998
SP 12:00:00 TS -19.12 136.22 25 997 30 998
SP 15:00:00 TS -19.23 136.12 25 997
SP 17:00:00 TS -19.29 135.98 25 997 25 997
SP 18:00:00 TS -19.31 135.93 25 996
SP 21:00:00 TS -19.31 135.79 25 996
SP 23:00:00 TS -19.30 135.68 25 996 25 996
SP 1976-02-04 00:00:00 TS -19.30 135.62 25 995
SP 03:00:00 TS -19.30 135.42 25 993
SP 05:00:00 TS -19.30 135.28 25 992 25 992
SP 06:00:00 TS -19.30 135.22 25 992
SP 09:00:00 TS -19.30 135.02 25 992
SI 11:00:00 TS -19.30 134.89 25 993 25 993
SI 12:00:00 TS -19.30 134.81 25 992
SI 15:00:00 TS -19.30 134.57 25 992
SI 17:00:00 TS -19.30 134.40 25 992 25 992
SI 18:00:00 TS -19.30 134.30 25 992
SI 21:00:00 TS -19.27 134.05 25 992
SI 23:00:00 TS -19.29 133.87 25 993 25 993
SI 1976-02-05 00:00:00 TS -19.31 133.79 25 992 30 993
SI 02:00:00 TS -19.39 133.70 25 992 25 992 30 992
SI 03:00:00 TS -19.45 133.68 25 991 30 992
SI 05:00:00 TS -19.59 133.67 25 991 25 991 30 991
SI 06:00:00 TS -19.66 133.67 25 990 30 991
SI 09:00:00 TS -19.86 133.70 25 989 30 990
SI 11:00:00 TS -19.97 133.75 25 989 25 989 30 989
SI 12:00:00 TS -20.01 133.78 25 989 30 989
SI 15:00:00 TS -20.07 133.88 25 989 30 989
SI 17:00:00 TS -20.09 133.97 25 989 25 989 30 989
SI 18:00:00 TS -20.10 134.01 25 989 30 989
SI 21:00:00 TS -20.14 134.16 25 989 30 989
SI 23:00:00 TS -20.18 134.27 25 990 25 990 30 989
SI 1976-02-06 00:00:00 TS -20.21 134.32 25 990 30 990
SI 02:00:00 TS -20.29 134.44 25 991 25 991 30 990
SI 03:00:00 TS -20.35 134.49 25 990 30 990
SI 05:00:00 TS -20.48 134.56 25 990 25 990 30 990
SI 06:00:00 TS -20.56 134.57 25 990 30 990
SI 09:00:00 TS -20.81 134.49 25 991 30 991
SI 11:00:00 TS -20.98 134.40 25 993 25 993 30 992
SI 12:00:00 TS -21.06 134.35 25 992 30 993
SI 15:00:00 TS -21.27 134.23 25 992 30 992
SI 17:00:00 TS -21.39 134.18 25 992 25 992 30 992
SI 18:00:00 TS -21.45 134.17 25 992 30 992
SI 21:00:00 TS -21.60 134.20 25 992 30 992
SI 23:00:00 TS -21.70 134.24 25 993 25 993 30 992
SI 1976-02-07 00:00:00 TS -21.76 134.24 25 992 30 993
SI 03:00:00 TS -21.95 134.32 25 992
SI 05:00:00 TS -22.14 134.33 25 992 25 992
SI 06:00:00 TS -22.26 134.38 25 992
SI 09:00:00 TS -22.70 134.62 25 993
SI 11:00:00 TS -23.02 134.77 25 994 25 994
SI 12:00:00 TS -23.18 134.83 25 993
SI 15:00:00 TS -23.63 134.94 25 993
SI 17:00:00 TS -23.89 134.99 25 993 25 993
SP 18:00:00 TS -24.00 135.02 25 993
SP 21:00:00 TS -24.27 135.07 25 993
SP 23:00:00 TS -24.42 135.06 25 993 25 993
SP 1976-02-08 00:00:00 TS -24.50 135.02 25 992
SI 03:00:00 TS -24.75 134.82 25 992
SI 05:00:00 TS -24.88 134.71 25 992 25 992
SI 06:00:00 TS -24.92 134.69 25 992
SI 08:00:00 TS -24.98 134.71 25 993 25 993
SI 09:00:00 TS -24.98 134.73 25 993
SI 11:00:00 TS -24.99 134.82 25 994 25 994
SI 12:00:00 TS -25.01 134.87 25 993
SP 15:00:00 TS -25.11 135.06 25 993
SP 17:00:00 TS -25.18 135.21 25 993 25 993
SP 18:00:00 TS -25.21 135.28 25 993
SP 21:00:00 TS -25.27 135.49 25 993
SP 23:00:00 TS -25.33 135.72 25 993 25 993
SP 1976-02-09 00:00:00 TS -25.37 135.89 25 992
SP 03:00:00 TS -25.51 136.56 25 992
SP 05:00:00 TS -25.62 137.10 25 992 25 992
SP 06:00:00 TS -25.67 137.39 25 992
SP 09:00:00 TS -25.78 138.46 25 992
SP 11:00:00 TS -25.86 139.01 25 993 25 993
SP 12:00:00 TS -25.90 139.10 30 993

Source Information

Agency Information
USA bsh131976.txt
TOKYO
CMA
HKO
NEWDELHI
REUNION
BOM IDCKMSTM0S.csv:Line=10162:ALAN
NADI
WELLINGTON TC_BT_1967_2006.csv:Line=821:ALAN
DS824 s_hem.dat:1307:13P
TD9636 cons_worldwide_trop_cyclone_18710101-19891231-006:Line=10103
TD9635
NEUMANN tracks.sh:Storm=459:ALAN:BSH1376:BM465
MLC

All available IBTrACS Data

SEASON BASIN SUBBASIN ISO_TIME_________ NATURE LAT LON WMO WIND WMO PRES WMO AGENCY DIST2LAND LANDFALL IFLAG USA AGENCY USA ATCF_ID USA LAT USA LON USA SSHS BOM LAT BOM LON BOM TYPE BOM WIND BOM PRES BOM CI BOM PRES_METHOD WELLINGTON LAT WELLINGTON LON WELLINGTON WIND WELLINGTON PRES DS824 LAT DS824 LON DS824 STAGE TD9636 LAT TD9636 LON TD9636 STAGE NEUMANN LAT NEUMANN LON NEUMANN CLASS NEUMANN WIND NEUMANN PRES BOM GUST BOM GUST_PER STORM SPEED STORM DIR
Year degrees north degrees east kts mb km km degrees north degrees east 1 degrees north degrees east kts mb 1 degrees north degrees east kts mb degrees north degrees east degrees north degrees east degrees north degrees east kts mb kts second kts degrees
1976 SP MM 1976-01-29 23:00:00 NR -12.50 162.00 190 190 ______O_______ -1 -12.50 162.00 20 25 1007 1.50 45 45 31 246
1976 SP MM 1976-01-30 00:00:00 TS -12.71 161.52 215 215 O_____P__OO_O_ jtwc_sh SH131976 -13.00 161.00 -1 -12.49 161.83 20 25 1006 -13.00 161.00 TC -13.00 161.00 2 -12.50 162.20 TC 15 1007 16 265
1976 SP MM 03:00:00 TS -12.60 160.93 224 224 P_____P__PP_P_ SH131976 -12.73 160.37 -1 -12.48 161.32 20 25 1005 -12.73 160.37 TC -12.75 160.32 2 -12.48 161.69 TC 17 1006 12 280
1976 SP MM 05:00:00 TS -12.53 160.53 237 237 P_____O__PP_P_ SH131976 -12.57 159.93 -1 -12.50 161.00 20 25 1005 1.50 -12.57 159.93 TC -12.60 159.86 2 -12.49 161.36 TC 19 1005 45 45 12 279
1976 SP MM 06:00:00 TS -12.51 160.31 249 249 O_____P__OP_O_ jtwc_sh SH131976 -12.50 159.70 -1 -12.52 160.85 20 25 1005 -12.50 159.70 TC -12.53 159.63 2 -12.50 161.20 TC 20 1005 12 274
1976 SP EA 09:00:00 TS -12.48 159.71 289 289 P_____P__PP_P_ SH131976 -12.35 158.97 -1 -12.62 160.37 20 25 1006 -12.35 158.97 TC -12.37 158.93 2 -12.58 160.74 TC 17 1006 12 271
1976 SP EA 11:00:00 TS -12.49 159.28 25 1007 bom 307 307 P_____O__PP_P_ SH131976 -12.30 158.46 -1 -12.70 160.00 20 25 1007 1.50 -12.30 158.46 TC -12.31 158.45 2 -12.66 160.40 TC 15 1006 45 45 13 267
1976 SP EA 12:00:00 TS -12.51 159.05 314 314 O_____P__OO_O_ jtwc_sh SH131976 -12.30 158.20 -1 -12.73 159.78 20 25 1006 -12.30 158.20 TC -12.30 158.20 2 -12.70 160.20 TC 15 1007 15 265
1976 SP EA 15:00:00 TS -12.58 158.29 353 353 P_____P__PP_P_ SH131976 -12.35 157.41 -1 -12.83 159.03 20 25 1005 -12.35 157.41 TC -12.34 157.44 2 -12.80 159.49 TC 17 1006 15 263
1976 SP EA 17:00:00 TS -12.65 157.76 25 1005 bom 391 391 P_____O__PP_P_ SH131976 -12.44 156.87 -1 -12.90 158.50 20 25 1005 1.50 -12.44 156.87 TC -12.41 156.91 2 -12.87 158.96 TC 19 1005 45 45 16 261
1976 SP EA 18:00:00 TS -12.70 157.50 410 410 O_____P__OP_O_ jtwc_sh SH131976 -12.50 156.60 -1 -12.91 158.27 20 25 1004 -12.50 156.60 TC -12.46 156.65 2 -12.90 158.70 TC 20 1005 15 261
1976 SP EA 21:00:00 TS -12.82 156.74 476 476 P_____P__PP_P_ SH131976 -12.68 155.81 -1 -12.95 157.55 20 25 1004 -12.68 155.81 TC -12.66 155.83 2 -12.92 158.00 TC 20 1004 16 258
1976 SP EA 23:00:00 TS -12.96 156.20 25 1004 bom 522 522 P_____O__PP_P_ SH131976 -12.82 155.27 -1 -13.10 157.00 20 25 1004 1.50 -12.82 155.27 TC -12.82 155.28 2 -13.01 157.49 TC 20 1004 45 45 17 255
1976 SP EA 1976-01-31 00:00:00 TS -13.04 155.92 534 534 O_____P_OOO_O_ jtwc_sh SH131976 -12.90 155.00 -1 -13.25 156.68 20 25 1003 -12.50 156.00 40 990 -12.90 155.00 TC -12.90 155.00 2 -13.10 157.20 TC 20 1004 20 249
1976 SP EA 03:00:00 TS -13.42 154.95 554 523 P_____P_PPP_P_ SH131976 -13.13 154.16 -1 -13.87 155.60 20 25 1003 -12.91 154.71 40 990 -13.13 154.16 TC -13.12 154.14 2 -13.65 156.18 TC 22 1003 21 248
1976 SP EA 05:00:00 TS -13.70 154.24 25 1003 bom 515 499 P_____O_PPP_P_ SH131976 -13.31 153.59 -1 -14.30 154.80 20 25 1003 1.50 -13.18 153.86 40 990 -13.31 153.59 TC -13.29 153.57 2 -14.09 155.40 TC 24 1003 45 45 22 249
1976 SP EA 06:00:00 TS -13.82 153.87 499 463 O_____P_POP_O_ jtwc_sh SH131976 -13.40 153.30 -1 -14.48 154.40 20 25 1002 -13.31 153.44 40 990 -13.40 153.30 TC -13.38 153.28 2 -14.30 155.00 TC 25 1003 23 250
1976 SP EA 09:00:00 TS -14.21 152.79 463 451 P_____P_PPP_P_ SH131976 -13.68 152.43 -1 -14.96 153.13 20 25 1002 -13.67 152.20 40 990 -13.68 152.43 TC -13.68 152.42 2 -14.81 153.76 TC 25 1002 22 251
1976 SP EA 11:00:00 TS -14.44 152.07 25 1002 bom 451 451 P_____O_PPP_P_ SH131976 -13.89 151.87 -1 -15.20 152.30 20 25 1002 2.00 -13.90 151.39 40 990 -13.89 151.87 TC -13.89 151.87 2 -15.09 152.91 TC 25 1002 45 45 22 252
1976 SP EA 12:00:00 TS -14.54 151.73 448 448 O_____P_OOO_O_ jtwc_sh SH131976 -14.00 151.60 -1 -15.30 151.90 20 25 1001 -14.00 151.00 40 990 -14.00 151.60 TC -14.00 151.60 2 -15.20 152.50 TC 25 1002 20 253
1976 SP EA 15:00:00 TS -14.83 150.75 461 460 P_____P_PPP_P_ SH131976 -14.33 150.88 -1 -15.51 150.73 20 28 999 -14.28 149.87 43 987 -14.33 150.88 TC -14.38 150.84 2 -15.45 151.31 TC 30 1000 19 254
1976 SP EA 17:00:00 TS -15.00 150.14 30 998 bom 481 477 P_____O_PPP_P_ SH131976 -14.57 150.43 -1 -15.60 150.00 20 30 998 2.50 -14.46 149.15 46 985 -14.57 150.43 TC -14.64 150.35 2 -15.56 150.56 TC 33 998 45 45 18 254
1976 SP EA 18:00:00 TS -15.08 149.84 467 381 O_____P_POP_O_ jtwc_sh SH131976 -14.70 150.20 -1 -15.65 149.63 20 30 997 -14.54 148.81 47 985 -14.70 150.20 TC -14.78 150.11 2 -15.60 150.20 TC 35 998 18 253
1976 SP EA 21:00:00 TS -15.34 148.95 372 315 P_____P_PPP_P_ SH131976 -15.12 149.45 -1 -15.76 148.60 20 33 995 -14.77 147.85 51 982 -15.12 149.45 TC -15.17 149.41 2 -15.73 149.13 TC 37 996 17 253
1976 SP EA 23:00:00 TS -15.49 148.39 35 994 bom 315 291 P_____O_PPP_P_ SH131976 -15.39 148.95 -1 -15.80 148.00 30 35 994 3.00 -14.92 147.27 53 980 -15.39 148.95 TC -15.40 148.94 2 -15.78 148.49 TC 39 994 49 49 16 254
1976 SP EA 1976-02-01 00:00:00 TS -15.56 148.13 282 208 O_____P_OOO_O_ jtwc_sh SH131976 -15.50 148.70 -1 -15.82 147.73 30 35 994 -15.00 147.00 55 980 -15.50 148.70 TC -15.50 148.70 2 -15.80 148.20 TC 40 994 15 258
1976 SP EA 03:00:00 TS -15.70 147.40 208 163 P_____P_PPP_P_ SH131976 -15.74 148.00 -1 -15.83 147.03 30 35 994 -15.24 146.27 51 982 -15.74 148.00 TC -15.68 147.96 2 -15.83 147.45 TC 40 994 14 260
1976 SP EA 05:00:00 TS -15.76 146.94 35 995 bom 153 143 P_____O_PPP_P_ SH131976 -15.85 147.54 -1 -15.80 146.60 30 35 995 3.00 -15.40 145.83 48 984 -15.85 147.54 TC -15.76 147.46 2 -15.82 147.01 TC 40 994 49 49 13 263
1976 SP EA 06:00:00 TS -15.78 146.72 132 72 O_____P_POP_O_ jtwc_sh SH131976 -15.90 147.30 -1 -15.78 146.37 30 35 995 -15.49 145.63 47 985 -15.90 147.30 TC -15.80 147.22 2 -15.80 146.80 TC 40 995 13 266
1976 SP EA 09:00:00 TS -15.82 146.08 72 33 P_____P_PPP_P_ SH131976 -16.00 146.54 -1 -15.70 145.72 30 35 995 -15.74 145.05 43 987 -16.00 146.54 TC -15.96 146.49 2 -15.69 146.17 TC 37 995 12 266
1976 SP EA 11:00:00 TS -15.85 145.67 35 996 bom 33 10 P_____O_PPP_P_ SH131976 -16.11 146.04 -1 -15.60 145.30 30 35 996 -15.91 144.68 41 989 -16.11 146.04 TC -16.10 146.03 2 -15.62 145.74 TC 35 995 49 49 12 265
1976 SP EA 12:00:00 TS -15.87 145.48 10 0 O_____P_OOO_O_ jtwc_sh SH131976 -16.20 145.80 -1 -15.51 145.13 30 33 996 -16.00 144.50 40 990 -16.20 145.80 TC -16.20 145.80 2 -15.60 145.50 TC 35 996 12 257
1976 SP EA 14:00:00 TS -15.99 145.04 30 997 bom 0 0 P_____O__PP_P_ SH131976 -16.47 145.35 -1 -15.40 144.70 20 30 997 -16.47 145.35 TC -16.52 145.40 2 -15.54 144.96 TC 36 996 45 45 14 252
1976 SP EA 15:00:00 TS -16.09 144.78 0 0 P_____P__PP_P_ SH131976 -16.64 145.13 -1 -15.45 144.36 20 28 997 -16.64 145.13 TC -16.70 145.20 2 -15.54 144.67 TC 37 997 17 244
1976 SP EA 17:00:00 TS -16.36 144.25 25 998 bom 0 0 P_____O__PP_P_ SH131976 -17.01 144.71 -1 -15.70 143.60 20 25 998 -17.01 144.71 TC -17.08 144.81 2 -15.61 144.09 TC 39 997 45 45 17 240
1976 SP EA 18:00:00 TS -16.53 144.00 0 0 O_____P__OP_O_ jtwc_sh SH131976 -17.20 144.50 -1 -15.88 143.28 20 25 998 -17.20 144.50 TC -17.28 144.62 2 -15.70 143.80 TC 40 998 18 230
1976 SP EA 21:00:00 TS -17.13 143.29 0 0 P_____P__PP_P_ SH131976 -17.79 143.93 -1 -16.57 142.45 20 25 999 -17.79 143.93 TC -17.84 144.00 2 -16.31 142.96 TC 37 999 18 228
1976 SP EA 23:00:00 TS -17.53 142.84 25 1001 bom 0 0 P_____O__PP_P_ SH131976 -18.15 143.53 -1 -17.00 142.00 20 25 1001 -18.15 143.53 TC -18.17 143.55 2 -16.79 142.44 TC 35 1000 45 45 17 229
1976 SP EA 1976-02-02 00:00:00 TS -17.69 142.61 0 0 O_____P__OO_O_ jtwc_sh SH131976 -18.30 143.30 -1 -17.15 141.77 20 25 1000 -18.30 143.30 TC -18.30 143.30 2 -17.00 142.20 TC 35 1001 15 241
1976 SP EA 03:00:00 TS -18.01 141.92 0 0 P_____P__PP_P_ SH131976 -18.59 142.52 -1 -17.46 141.20 20 25 999 -18.59 142.52 TC -18.57 142.47 2 -17.37 141.57 TC 32 999 14 248
1976 SP EA 05:00:00 TS -18.13 141.46 25 998 bom 0 0 P_____O__PP_P_ SH131976 -18.68 141.92 -1 -17.60 140.90 20 25 998 -18.68 141.92 TC -18.65 141.86 2 -17.54 141.24 TC 30 998 45 45 13 256
1976 SP EA 06:00:00 TS -18.17 141.24 0 0 O_____P__OP_O_ jtwc_sh SH131976 -18.70 141.60 -1 -17.66 140.79 20 25 998 -18.70 141.60 TC -18.67 141.54 2 -17.60 141.10 TC 30 998 12 266
1976 SP EA 09:00:00 TS -18.18 140.59 0 0 P_____P__PP_P_ SH131976 -18.68 140.58 -1 -17.81 140.54 20 25 998 -18.68 140.58 TC -18.67 140.53 2 -17.76 140.82 TC 30 998 12 272
1976 SP EA 11:00:00 TS -18.14 140.22 25 999 bom 0 0 P_____O__PP_P_ SH131976 -18.63 139.86 -1 -17.90 140.30 20 25 999 -18.63 139.86 TC -18.62 139.85 2 -17.85 140.63 TC 30 998 45 45 10 282
1976 SP EA 12:00:00 TS -18.08 140.09 0 0 O_____P__OO_O_ jtwc_sh SH131976 -18.60 139.50 -1 -17.96 140.12 20 25 999 -18.60 139.50 TC -18.60 139.50 6 -17.90 140.50 TC 30 999 9 269
1976 SP EA 15:00:00 TS -18.15 139.58 0 0 ______P_____P_ SH131976 -1 -18.16 139.43 20 25 999 TC 6 -18.09 139.88 TC 30 999 12 258
1976 SP EA 17:00:00 TS -18.29 139.05 25 1000 bom 0 0 ______O_____P_ SH131976 -1 -18.30 138.90 20 25 1000 TC 6 -18.23 139.37 TC 30 999 45 45 16 255
1976 SP EA 18:00:00 TS -18.36 138.77 0 0 ______P_____O_ -1 -18.37 138.61 20 25 1000 6 -18.30 139.10 TC 30 1000 17 256
1976 SP EA 21:00:00 TS -18.55 137.89 0 0 ______P_____P_ -1 -18.58 137.70 20 25 1001 6 -18.52 138.19 TC 30 1001 16 257
1976 SP EA 23:00:00 TS -18.67 137.38 25 1003 bom 0 0 ______O_____P_ -1 -18.70 137.20 20 25 1003 6 -18.65 137.63 TC 30 1002 45 45 14 257
1976 SP EA 1976-02-03 00:00:00 TS -18.71 137.18 0 0 ______P_____O_ -1 -18.74 137.03 20 25 1002 -18.70 137.40 TC 30 1003 8 254
1976 SP EA 03:00:00 TS -18.82 136.81 0 0 ______P_____P_ -1 -18.84 136.72 20 25 1000 -18.81 137.00 TC 30 1001 6 251
1976 SP EA 05:00:00 TS -18.88 136.67 25 999 bom 0 0 ______O_____P_ -1 -18.90 136.60 20 25 999 -18.87 136.86 TC 30 999 45 45 4 245
1976 SP EA 06:00:00 TS -18.91 136.61 0 0 ______P_____O_ -1 -18.93 136.52 20 25 998 -18.90 136.80 TC 30 999 4 243
1976 SP EA 09:00:00 TS -19.01 136.40 0 0 ______P_____P_ -1 -19.03 136.31 20 25 998 -19.00 136.58 TC 30 998 4 241
1976 SP EA 11:00:00 TS -19.08 136.28 25 998 bom 0 0 ______O_____P_ -1 -19.10 136.20 20 25 998 -19.07 136.46 TC 30 998 45 45 4 238
1976 SP EA 12:00:00 TS -19.12 136.22 0 0 ______P_____O_ -1 -19.14 136.16 20 25 997 -19.10 136.40 TC 30 998 3 225
1976 SP EA 15:00:00 TS -19.23 136.12 0 0 ______P_____P_ -1 -19.25 136.06 20 25 997 -19.16 136.19 TC 4 233
1976 SP EA 17:00:00 TS -19.29 135.98 25 997 bom 0 0 ______O_____P_ -1 -19.30 136.00 20 25 997 -19.18 136.04 TC 45 45 4 248
1976 SP EA 18:00:00 TS -19.31 135.93 0 0 ______P_____P_ -1 -19.31 135.96 20 25 996 -19.19 135.97 TC 3 262
1976 SP EA 21:00:00 TS -19.31 135.79 0 0 ______P_____P_ -1 -19.31 135.81 20 25 996 -19.19 135.74 TC 3 271
1976 SP EA 23:00:00 TS -19.30 135.68 25 996 bom 0 0 ______O_____P_ -1 -19.30 135.70 20 25 996 -19.18 135.59 TC 45 45 3 275
1976 SP EA 1976-02-04 00:00:00 TS -19.30 135.62 0 0 ______P_____P_ -1 -19.30 135.64 20 25 995 -19.18 135.51 TC 4 271
1976 SP EA 03:00:00 TS -19.30 135.42 0 0 ______P_____P_ -1 -19.30 135.44 20 25 993 -19.16 135.28 TC 4 270
1976 SP EA 05:00:00 TS -19.30 135.28 25 992 bom 0 0 ______O_____P_ -1 -19.30 135.30 20 25 992 -19.14 135.14 TC 45 45 4 270
1976 SP EA 06:00:00 TS -19.30 135.22 0 0 ______P_____P_ -1 -19.30 135.24 20 25 992 -19.13 135.06 TC 4 270
1976 SP EA 09:00:00 TS -19.30 135.02 0 0 ______P_____P_ -1 -19.30 135.04 20 25 992 -19.11 134.85 TC 4 270
1976 SI WA 11:00:00 TS -19.30 134.89 25 993 bom 0 0 ______O_____P_ -1 -19.30 134.90 20 25 993 -19.10 134.71 TC 45 45 4 270
1976 SI WA 12:00:00 TS -19.30 134.81 0 0 ______P_____P_ -1 -19.30 134.82 20 25 992 -19.10 134.64 TC 4 270
1976 SI WA 15:00:00 TS -19.30 134.57 0 0 ______P_____P_ -1 -19.30 134.58 20 25 992 -19.11 134.46 TC 5 270
1976 SI WA 17:00:00 TS -19.30 134.40 25 992 bom 0 0 ______O_____P_ -1 -19.30 134.40 20 25 992 -19.13 134.34 TC 45 45 5 271
1976 SI WA 18:00:00 TS -19.30 134.30 0 0 ______P_____P_ -1 -19.29 134.30 20 25 992 -19.14 134.28 TC 5 275
1976 SI WA 21:00:00 TS -19.27 134.05 0 0 ______P_____P_ -1 -19.28 133.98 20 25 992 -19.20 134.13 TC 5 271
1976 SI WA 23:00:00 TS -19.29 133.87 25 993 bom 0 0 ______O_____P_ -1 -19.30 133.80 20 25 993 -19.26 134.04 TC 45 45 5 262
1976 SI WA 1976-02-05 00:00:00 TS -19.31 133.79 0 0 ______P_____O_ -1 -19.32 133.72 20 25 992 -19.30 134.00 TC 30 993 4 237
1976 SI WA 02:00:00 TS -19.39 133.70 25 992 bom 0 0 ______O_____P_ -1 -19.40 133.60 20 25 992 -19.39 133.91 TC 30 992 45 45 4 216
1976 SI WA 03:00:00 TS -19.45 133.68 0 0 ______P_____P_ -1 -19.46 133.58 20 25 991 -19.44 133.87 TC 30 992 4 188
1976 SI WA 05:00:00 TS -19.59 133.67 25 991 bom 0 0 ______O_____P_ -1 -19.60 133.60 20 25 991 -19.54 133.81 TC 30 991 45 45 4 0
1976 SI WA 06:00:00 TS -19.66 133.67 0 0 ______P_____O_ -1 -19.67 133.61 20 25 990 -19.60 133.80 TC 30 991 4 171
1976 SI WA 09:00:00 TS -19.86 133.70 0 0 ______P_____P_ -1 -19.89 133.65 20 25 989 -19.81 133.82 TC 30 990 4 167
1976 SI WA 11:00:00 TS -19.97 133.75 25 989 bom 0 0 ______O_____P_ -1 -20.00 133.70 20 25 989 4 -19.95 133.87 TC 30 989 45 45 3 155
1976 SI WA 12:00:00 TS -20.01 133.78 0 0 ______P_____O_ -1 -20.03 133.73 20 25 989 -20.00 133.90 TC 30 989 2 129
1976 SI WA 15:00:00 TS -20.07 133.88 0 0 ______P_____P_ -1 -20.08 133.82 20 25 989 -20.07 133.99 TC 30 989 2 114
1976 SI WA 17:00:00 TS -20.09 133.97 25 989 bom 0 0 ______O_____P_ -1 -20.10 133.90 20 25 989 -20.09 134.06 TC 30 989 45 45 3 104
1976 SI WA 18:00:00 TS -20.10 134.01 0 0 ______P_____O_ -1 -20.11 133.94 20 25 989 -20.10 134.10 TC 30 989 3 104
1976 SI WA 21:00:00 TS -20.14 134.16 0 0 ______P_____P_ -1 -20.16 134.08 20 25 989 -20.14 134.24 TC 30 989 3 107
1976 SI WA 23:00:00 TS -20.18 134.27 25 990 bom 0 0 ______O_____P_ -1 -20.20 134.20 20 25 990 -20.17 134.35 TC 30 989 45 45 3 114
1976 SI WA 1976-02-06 00:00:00 TS -20.21 134.32 0 0 ______P_____O_ -1 -20.22 134.27 20 25 990 -20.20 134.40 TC 30 990 4 125
1976 SI WA 02:00:00 TS -20.29 134.44 25 991 bom 0 0 ______O_____P_ -1 -20.30 134.40 20 25 991 -20.27 134.53 TC 30 990 45 45 4 131
1976 SI WA 03:00:00 TS -20.35 134.49 0 0 ______P_____P_ -1 -20.36 134.45 20 25 990 -20.32 134.59 TC 30 990 4 149
1976 SI WA 05:00:00 TS -20.48 134.56 25 990 bom 0 0 ______O_____P_ -1 -20.50 134.50 20 25 990 -20.43 134.68 TC 30 990 45 45 4 163
1976 SI WA 06:00:00 TS -20.56 134.57 0 0 ______P_____O_ -1 -20.58 134.50 20 25 990 -20.50 134.70 TC 30 990 5 192
1976 SI WA 09:00:00 TS -20.81 134.49 0 0 ______P_____P_ -1 -20.83 134.40 20 25 991 -20.74 134.64 TC 30 991 5 201
1976 SI WA 11:00:00 TS -20.98 134.40 25 993 bom 0 0 ______O_____P_ -1 -21.00 134.30 20 25 993 -20.92 134.55 TC 30 992 45 45 6 207
1976 SI WA 12:00:00 TS -21.06 134.35 0 0 ______P_____O_ -1 -21.08 134.26 20 25 992 -21.00 134.50 TC 30 993 5 208
1976 SI WA 15:00:00 TS -21.27 134.23 0 0 ______P_____P_ -1 -21.28 134.14 20 25 992 -21.22 134.38 TC 30 992 5 206
1976 SI WA 17:00:00 TS -21.39 134.18 25 992 bom 0 0 ______O_____P_ -1 -21.40 134.10 20 25 992 -21.34 134.32 TC 30 992 45 45 4 197
1976 SI WA 18:00:00 TS -21.45 134.17 0 0 ______P_____O_ -1 -21.45 134.10 20 25 992 -21.40 134.30 TC 30 992 3 0
1976 SI WA 21:00:00 TS -21.60 134.20 0 0 ______P_____P_ -1 -21.60 134.15 20 25 992 -21.56 134.32 TC 30 992 3 164
1976 SI WA 23:00:00 TS -21.70 134.24 25 993 bom 0 0 ______O_____P_ -1 -21.70 134.20 20 25 993 -21.65 134.37 TC 30 992 45 45 3 165
1976 SI WA 1976-02-07 00:00:00 TS -21.76 134.24 0 0 ______P_____O_ -1 -21.75 134.21 20 25 992 -21.70 134.40 TC 30 993 4 165
1976 SI WA 03:00:00 TS -21.95 134.32 0 0 ______P_______ -1 -21.92 134.24 20 25 992 TC 5 168
1976 SI WA 05:00:00 TS -22.14 134.33 25 992 bom 0 0 ______O_______ -1 -22.10 134.30 20 25 992 TC 45 45 6 168
1976 SI WA 06:00:00 TS -22.26 134.38 0 0 ______P_______ -1 -22.22 134.37 20 25 992 TC 9 154
1976 SI WA 09:00:00 TS -22.70 134.62 0 0 ______P_______ -1 -22.67 134.63 20 25 993 TC 10 155
1976 SI WA 11:00:00 TS -23.02 134.77 25 994 bom 0 0 ______O_______ -1 -23.00 134.80 20 25 994 TC 45 45 10 158
1976 SI WA 12:00:00 TS -23.18 134.83 0 0 ______P_______ -1 -23.16 134.85 20 25 993 TC 9 166
1976 SI WA 15:00:00 TS -23.63 134.94 0 0 ______P_______ -1 -23.63 134.96 20 25 993 TC 9 168
1976 SI WA 17:00:00 TS -23.89 134.99 25 993 bom 0 0 ______O_______ -1 -23.90 135.00 20 25 993 TC 45 45 8 169
1976 SP EA 18:00:00 TS -24.00 135.02 0 0 ______P_______ -1 -24.01 135.04 20 25 993 TC 6 169
1976 SP EA 21:00:00 TS -24.27 135.07 0 0 ______P_______ -1 -24.26 135.11 20 25 993 TC 5 176
1976 SP EA 23:00:00 TS -24.42 135.06 25 993 bom 0 0 ______O_______ -1 -24.40 135.10 20 25 993 TC 45 45 5 191
1976 SP EA 1976-02-08 00:00:00 TS -24.50 135.02 0 0 ______P_______ -1 -24.49 135.05 20 25 992 TC 6 213
1976 SI WA 03:00:00 TS -24.75 134.82 0 0 ______P_______ -1 -24.77 134.81 20 25 992 TC 6 216
1976 SI WA 05:00:00 TS -24.88 134.71 25 992 bom 0 0 ______O_______ -1 -24.90 134.70 20 25 992 TC 45 45 4 214
1976 SI WA 06:00:00 TS -24.92 134.69 0 0 ______P_______ -1 -24.95 134.68 20 25 992 TC 2 0
1976 SI WA 08:00:00 TS -24.98 134.71 25 993 bom 0 0 ______O_______ -1 -25.00 134.70 20 25 993 TC 45 45 1 153
1976 SI WA 09:00:00 TS -24.98 134.73 0 0 ______P_______ -1 -25.00 134.72 20 25 993 TC 2 99
1976 SI WA 11:00:00 TS -24.99 134.82 25 994 bom 0 0 ______O_______ -1 -25.00 134.80 20 25 994 TC 45 45 3 102
1976 SI WA 12:00:00 TS -25.01 134.87 0 0 ______P_______ -1 -25.02 134.85 20 25 993 TC 4 119
1976 SP EA 15:00:00 TS -25.11 135.06 0 0 ______P_______ -1 -25.13 135.04 20 25 993 TC 4 120
1976 SP EA 17:00:00 TS -25.18 135.21 25 993 bom 0 0 ______O_______ -1 -25.20 135.20 20 25 993 TC 45 45 4 117
1976 SP EA 18:00:00 TS -25.21 135.28 0 0 ______P_______ -1 -25.22 135.25 20 25 993 TC 4 110
1976 SP EA 21:00:00 TS -25.27 135.49 0 0 ______P_______ -1 -25.26 135.46 20 25 993 TC 5 107
1976 SP EA 23:00:00 TS -25.33 135.72 25 993 bom 0 0 ______O_______ -1 -25.30 135.70 20 25 993 TC 45 45 7 105
1976 SP EA 1976-02-09 00:00:00 TS -25.37 135.89 0 0 ______P_______ -1 -25.34 135.87 20 25 992 TC 12 103
1976 SP EA 03:00:00 TS -25.51 136.56 0 0 ______P_______ -1 -25.49 136.55 20 25 992 TC 14 103
1976 SP EA 05:00:00 TS -25.62 137.10 25 992 bom 0 0 ______O_______ -1 -25.60 137.10 20 25 992 TC 45 45 15 102
1976 SP EA 06:00:00 TS -25.67 137.39 0 0 ______P_______ -1 -25.65 137.39 20 25 992 TC 18 98
1976 SP EA 09:00:00 TS -25.78 138.46 0 0 ______P_______ -1 -25.81 138.29 20 25 992 TC 18 98
1976 SP EA 11:00:00 TS -25.86 139.01 25 993 bom 0 0 ______O_______ -1 -25.90 138.90 20 25 993 TC 45 45 12 102
1976 SP EA 12:00:00 TS -25.90 139.10 0 ____________O_ -1 20 -25.90 139.10 TC 30 993 5 115